Creek Data

    Home     View Charts     View Raw Data     Messages

ID Distance Battery Voltage Battery Current Internal Temp Internal Humidity External Temp Solar Input rssi snr Time Stamp Record
68632 14.9 3.49 -5 56 53 58 0 -76 9 03/11/2026 10:45 PM 51505
68631 14.9 3.51 -5 57 53 58 0 -75 8 03/11/2026 10:30 PM 51504
68630 14.9 3.53 -5 57 53 60 0 -75 8 03/11/2026 10:15 PM 51503
68629 14.9 3.51 -5 58 53 60 0 -76 8 03/11/2026 09:45 PM 51501
68628 14.9 3.48 -5 57 54 62 0 -76 9 03/11/2026 09:30 PM 51500
68627 14.9 3.51 -5 58 54 60 0 -76 9 03/11/2026 09:15 PM 51499
68626 14.9 3.49 -5 59 55 62 0 -76 9 03/11/2026 09:00 PM 51498
68625 14.9 3.48 -5 58 56 61 0 -75 8 03/11/2026 08:45 PM 51497
68624 14.9 3.49 -5 59 57 62 0 -76 9 03/11/2026 08:30 PM 51496
68623 14.9 3.52 -5 60 58 59 0 -76 9 03/11/2026 08:15 PM 51495
68622 14.9 3.50 -5 62 58 63 0 -76 8 03/11/2026 08:00 PM 51494
68621 14.9 3.73 -5 64 60 64 0 -76 8 03/11/2026 07:45 PM 51493
68620 14.9 3.59 -5 66 60 66 0.1 -76 8 03/11/2026 07:30 PM 51492
68619 14.9 3.74 -5 68 61 68 2 -76 8 03/11/2026 07:15 PM 51491
68618 14.9 3.64 0 72 60 69 4.6 -76 8 03/11/2026 07:00 PM 51490
68617 15.0 3.70 -14 76 58 71 4.6 -76 8 03/11/2026 06:45 PM 51489
68616 15.0 3.84 36 79 57 71 4.5 -76 7 03/11/2026 06:30 PM 51488
68615 15.0 3.73 0 83 54 72 5.1 -76 8 03/11/2026 06:15 PM 51487
68614 14.9 3.73 6 84 53 74 5.1 -77 7 03/11/2026 06:00 PM 51486
68613 15.0 3.73 6 83 53 74 5.1 -76 8 03/11/2026 05:45 PM 51485
68612 15.0 3.73 6 83 53 73 5.1 -76 8 03/11/2026 05:30 PM 51484
68611 15.0 3.82 6 85 52 74 5.1 -76 8 03/11/2026 05:15 PM 51483
68610 15.1 3.73 6 85 51 74 5.1 -76 8 03/11/2026 05:00 PM 51482
68609 15.0 3.73 6 85 50 74 5.1 -75 8 03/11/2026 04:45 PM 51481
68608 15.0 3.73 6 85 50 74 5.1 -76 8 03/11/2026 04:30 PM 51480